Time;durP1;ratioP1;P1;durP2;ratioP2;P2;SDS_P1;SDS_P2;PMS_P1;PMS_P2;Temp;Humidity;BMP_temperature;BMP_pressure;BME280_temperature;BME280_humidity;BME280_pressure;Samples;Min_cycle;Max_cycle;Signal;HPM_P1;HPM_P2
2021/07/22 00:02:13;;;;;;;5.88;3.80;;;20.40;89.70;;;;;;6127831;23;20445;-90
2021/07/22 00:04:39;;;;;;;5.15;3.50;;;20.40;89.30;;;;;;6126201;23;20025;-92
2021/07/22 00:07:05;;;;;;;5.13;3.65;;;20.40;89.50;;;;;;6127934;23;20029;-91
2021/07/22 00:09:30;;;;;;;3.80;3.40;;;20.30;89.50;;;;;;6125710;23;19998;-91
2021/07/22 00:11:56;;;;;;;4.05;3.63;;;20.30;89.60;;;;;;6127116;23;20003;-91
2021/07/22 00:14:22;;;;;;;4.53;3.53;;;20.30;89.70;;;;;;6126120;23;20068;-92
2021/07/22 00:16:48;;;;;;;4.53;3.20;;;20.30;89.80;;;;;;6126329;23;20405;-91
2021/07/22 00:19:14;;;;;;;4.15;3.15;;;20.30;89.70;;;;;;6127297;23;20064;-92
2021/07/22 00:21:39;;;;;;;3.92;3.25;;;20.20;89.80;;;;;;6125428;23;20362;-91
2021/07/22 00:24:05;;;;;;;6.10;3.15;;;20.30;89.90;;;;;;6125937;23;20041;-91
2021/07/22 00:26:31;;;;;;;4.68;3.38;;;20.30;89.80;;;;;;6125741;23;20065;-91
2021/07/22 00:28:57;;;;;;;3.80;3.20;;;20.30;89.60;;;;;;6126119;23;20005;-91
2021/07/22 00:31:23;;;;;;;3.35;2.95;;;20.20;89.50;;;;;;6125654;23;20229;-91
2021/07/22 00:33:49;;;;;;;3.08;2.78;;;20.20;89.30;;;;;;6127363;23;20048;-91
2021/07/22 00:36:16;;;;;;;3.97;3.40;;;20.20;89.40;;;;;;6125900;23;20042;-91
2021/07/22 00:38:42;;;;;;;3.20;2.88;;;20.20;89.30;;;;;;6125921;23;20017;-91
2021/07/22 00:41:11;;;;;;;3.75;2.83;;;20.20;89.30;;;;;;6125832;23;20085;-91
2021/07/22 00:43:40;;;;;;;4.55;3.45;;;20.20;89.30;;;;;;6126966;23;20085;-91
2021/07/22 00:46:07;;;;;;;4.22;3.38;;;20.10;89.30;;;;;;6126146;23;20089;-90
2021/07/22 00:48:33;;;;;;;4.40;3.40;;;20.10;89.40;;;;;;6125770;23;20006;-92
2021/07/22 00:50:58;;;;;;;3.38;2.83;;;20.10;89.40;;;;;;6125769;23;20056;-91
2021/07/22 00:53:24;;;;;;;4.15;3.15;;;20.10;89.30;;;;;;6127080;23;20425;-90
2021/07/22 00:55:49;;;;;;;5.47;3.45;;;20.00;89.20;;;;;;6125607;23;20041;-91
2021/07/22 00:58:15;;;;;;;4.30;3.38;;;20.00;89.20;;;;;;6125485;23;20014;-91
2021/07/22 01:00:41;;;;;;;6.03;3.67;;;20.00;89.10;;;;;;6125882;23;20012;-91
2021/07/22 01:03:07;;;;;;;3.20;2.90;;;19.90;88.90;;;;;;6125769;23;20088;-91
2021/07/22 01:05:32;;;;;;;5.05;3.53;;;19.90;88.80;;;;;;6125323;23;20338;-90
2021/07/22 01:07:58;;;;;;;3.92;3.28;;;19.90;88.80;;;;;;6125666;23;20014;-91
2021/07/22 01:10:24;;;;;;;4.18;3.17;;;19.90;88.70;;;;;;6125638;23;20068;-91
2021/07/22 01:12:49;;;;;;;3.30;2.70;;;19.90;88.70;;;;;;6127126;23;19998;-92
2021/07/22 01:15:15;;;;;;;4.50;3.28;;;19.90;88.70;;;;;;6131700;23;20095;-91
2021/07/22 01:17:47;;;;;;;3.15;2.85;;;19.80;88.70;;;;;;6139321;23;20029;-91
2021/07/22 01:20:17;;;;;;;5.65;2.72;;;19.80;88.80;;;;;;6143010;23;20033;-92
2021/07/22 01:22:44;;;;;;;4.00;3.38;;;19.80;89.00;;;;;;6143460;23;20017;-91
2021/07/22 01:25:11;;;;;;;3.88;3.03;;;19.80;89.00;;;;;;6127799;23;20010;-91
2021/07/22 01:27:37;;;;;;;3.63;3.03;;;19.80;89.20;;;;;;6125795;23;20010;-91
2021/07/22 01:30:04;;;;;;;4.03;2.78;;;19.80;89.40;;;;;;6126182;23;20006;-91
2021/07/22 01:32:30;;;;;;;2.80;2.50;;;19.80;89.40;;;;;;6125744;23;20002;-91
2021/07/22 01:34:56;;;;;;;3.35;2.97;;;19.90;89.30;;;;;;6127512;23;20006;-91
2021/07/22 01:37:22;;;;;;;3.55;2.97;;;19.80;89.40;;;;;;6126237;23;20008;-90
2021/07/22 01:39:48;;;;;;;3.30;2.78;;;19.80;89.30;;;;;;6127117;23;20002;-91
2021/07/22 01:42:14;;;;;;;2.95;2.67;;;19.90;89.20;;;;;;6127892;23;20009;-91
2021/07/22 01:44:39;;;;;;;2.85;2.65;;;19.90;89.00;;;;;;6126019;23;20009;-92
2021/07/22 01:47:05;;;;;;;3.17;2.60;;;19.90;88.70;;;;;;6125124;23;20397;-92
2021/07/22 01:49:32;;;;;;;2.95;2.60;;;19.90;88.50;;;;;;6125494;23;20010;-91
2021/07/22 01:52:02;;;;;;;3.10;2.60;;;19.90;88.50;;;;;;6125682;23;20030;-92
2021/07/22 01:54:28;;;;;;;3.80;3.30;;;19.90;88.50;;;;;;6125042;23;20009;-90
2021/07/22 01:56:57;;;;;;;3.03;2.40;;;19.90;88.60;;;;;;6125766;23;20010;-91
2021/07/22 01:59:24;;;;;;;4.20;2.88;;;19.90;88.40;;;;;;6126974;23;19998;-91
2021/07/22 02:01:49;;;;;;;3.47;3.00;;;19.90;87.80;;;;;;6126619;23;20430;-91
2021/07/22 02:04:15;;;;;;;3.20;2.90;;;19.90;87.00;;;;;;6125283;23;20118;-91
2021/07/22 02:06:41;;;;;;;3.28;2.75;;;19.90;86.20;;;;;;6125571;23;20014;-91
2021/07/22 02:09:06;;;;;;;3.35;2.72;;;19.90;84.70;;;;;;6125522;23;20002;-92
2021/07/22 02:11:32;;;;;;;2.70;2.50;;;19.90;84.30;;;;;;6125040;23;20130;-91
2021/07/22 02:13:58;;;;;;;2.70;2.50;;;19.90;84.30;;;;;;6125563;23;20085;-91
2021/07/22 02:16:23;;;;;;;3.28;2.83;;;19.90;84.50;;;;;;6125582;23;20014;-91
2021/07/22 02:18:49;;;;;;;2.70;2.50;;;19.90;84.50;;;;;;6125391;23;20005;-91
2021/07/22 02:21:15;;;;;;;3.65;2.95;;;19.80;83.50;;;;;;6125429;23;20013;-91
2021/07/22 02:23:41;;;;;;;3.60;2.90;;;19.80;83.70;;;;;;6126450;23;20045;-92
2021/07/22 02:26:08;;;;;;;3.03;2.72;;;19.70;84.00;;;;;;6125452;23;20318;-91
2021/07/22 02:28:35;;;;;;;8.02;2.50;;;19.70;84.50;;;;;;6125174;23;20006;-92
2021/07/22 02:31:01;;;;;;;2.88;2.60;;;19.70;84.80;;;;;;6125599;23;20005;-92
2021/07/22 02:33:27;;;;;;;2.70;2.45;;;19.60;85.10;;;;;;6125512;23;20002;-92
2021/07/22 02:35:52;;;;;;;3.55;2.78;;;19.60;85.30;;;;;;6126885;23;20010;-91
2021/07/22 02:38:18;;;;;;;2.40;2.20;;;19.60;85.60;;;;;;6126815;23;20012;-92
2021/07/22 02:40:44;;;;;;;2.70;2.50;;;19.60;85.70;;;;;;6127110;23;20057;-92
2021/07/22 02:43:11;;;;;;;3.10;2.75;;;19.60;85.70;;;;;;6128316;23;20006;-91
2021/07/22 02:45:39;;;;;;;2.70;2.50;;;19.60;85.90;;;;;;6126488;23;20086;-92
2021/07/22 02:48:06;;;;;;;3.08;2.53;;;19.60;85.90;;;;;;6126857;23;20006;-91
2021/07/22 02:50:35;;;;;;;2.45;2.20;;;19.50;85.90;;;;;;6127519;23;20029;-92
2021/07/22 02:53:02;;;;;;;2.50;2.30;;;19.50;86.10;;;;;;6126975;23;20010;-92
2021/07/22 02:55:27;;;;;;;2.50;2.30;;;19.50;86.30;;;;;;6126484;23;20010;-92
2021/07/22 02:57:56;;;;;;;4.22;2.95;;;19.40;86.40;;;;;;6126851;23;20118;-92
2021/07/22 03:00:22;;;;;;;2.75;2.42;;;19.40;86.50;;;;;;6126891;23;20006;-91
2021/07/22 03:02:47;;;;;;;3.15;2.35;;;19.40;86.70;;;;;;6143838;23;20054;-92
2021/07/22 03:05:13;;;;;;;4.80;2.83;;;19.40;87.40;;;;;;6148573;23;20033;-92
2021/07/22 03:07:39;;;;;;;4.35;3.15;;;19.30;87.00;;;;;;6151164;23;20002;-92
2021/07/22 03:10:05;;;;;;;3.50;2.78;;;19.30;87.30;;;;;;6145976;23;20016;-91
2021/07/22 03:12:31;;;;;;;4.85;2.90;;;19.30;87.50;;;;;;6132409;23;19998;-91
2021/07/22 03:14:57;;;;;;;3.45;2.95;;;19.30;87.70;;;;;;6126856;23;20072;-91
2021/07/22 03:17:23;;;;;;;2.92;2.53;;;19.30;87.80;;;;;;6127149;23;20010;-91
2021/07/22 03:19:48;;;;;;;2.47;2.28;;;19.30;87.90;;;;;;6130382;23;20025;-91
2021/07/22 03:22:15;;;;;;;3.20;2.90;;;19.30;88.10;;;;;;6129440;23;20012;-91
2021/07/22 03:24:41;;;;;;;2.92;2.63;;;19.30;88.20;;;;;;6129040;23;20030;-91
2021/07/22 03:27:07;;;;;;;3.83;3.10;;;19.30;88.30;;;;;;6130925;23;20002;-90
2021/07/22 03:29:35;;;;;;;4.13;2.67;;;19.30;88.30;;;;;;6129011;23;20005;-90
2021/07/22 03:32:01;;;;;;;9.70;3.00;;;19.40;88.20;;;;;;6128368;23;20002;-90
2021/07/22 03:34:26;;;;;;;3.35;2.70;;;19.40;88.20;;;;;;6127434;23;20009;-91
2021/07/22 03:36:52;;;;;;;3.80;3.08;;;19.40;88.30;;;;;;6128872;23;20006;-93
2021/07/22 03:39:18;;;;;;;2.70;2.50;;;19.30;88.30;;;;;;6126475;23;20033;-91
2021/07/22 03:41:49;;;;;;;4.38;3.08;;;19.30;88.50;;;;;;6126528;23;20497;-90
2021/07/22 03:44:16;;;;;;;3.40;3.10;;;19.30;88.70;;;;;;6128122;23;20001;-91
2021/07/22 03:46:42;;;;;;;3.53;3.22;;;19.20;88.80;;;;;;6126271;23;20025;-90
2021/07/22 03:49:08;;;;;;;4.70;3.25;;;19.10;89.20;;;;;;6128029;23;20001;-91
2021/07/22 03:51:34;;;;;;;5.75;3.25;;;19.10;89.50;;;;;;6126199;23;20540;-91
2021/07/22 03:53:59;;;;;;;4.13;2.92;;;19.00;89.90;;;;;;6126229;23;20010;-92
2021/07/22 03:56:26;;;;;;;4.43;3.88;;;19.00;90.10;;;;;;6126615;23;20049;-91
2021/07/22 03:58:55;;;;;;;5.95;3.70;;;19.00;90.20;;;;;;6126640;23;20037;-91
2021/07/22 04:01:20;;;;;;;4.68;3.78;;;18.90;90.40;;;;;;6126182;23;20010;-91
2021/07/22 04:03:46;;;;;;;5.97;3.65;;;18.90;90.60;;;;;;6127344;23;20398;-91
2021/07/22 04:06:12;;;;;;;4.10;3.47;;;18.80;90.70;;;;;;6156993;23;20005;-91
2021/07/22 04:08:38;;;;;;;6.22;3.50;;;18.70;90.80;;;;;;6131319;23;20004;-91
2021/07/22 04:11:06;;;;;;;3.90;3.60;;;18.60;91.00;;;;;;6131311;23;20010;-91
2021/07/22 04:13:32;;;;;;;4.32;3.92;;;18.60;91.10;;;;;;6130746;23;20025;-91
2021/07/22 04:16:02;;;;;;;6.30;4.47;;;18.60;91.20;;;;;;6130369;23;20326;-91
2021/07/22 04:18:28;;;;;;;5.50;4.05;;;18.60;91.40;;;;;;6131111;23;20012;-91
2021/07/22 04:20:54;;;;;;;4.70;4.30;;;18.60;91.40;;;;;;6130929;23;20005;-90
2021/07/22 04:23:20;;;;;;;5.45;4.40;;;18.60;91.40;;;;;;6156397;23;20052;-91
2021/07/22 04:25:46;;;;;;;6.85;4.72;;;18.70;91.50;;;;;;6156929;23;20333;-91
2021/07/22 04:28:12;;;;;;;4.93;4.10;;;18.70;91.40;;;;;;6131241;23;20009;-93
2021/07/22 04:30:38;;;;;;;4.72;4.20;;;18.80;91.40;;;;;;6131731;23;20005;-91
2021/07/22 04:33:04;;;;;;;4.78;4.10;;;18.80;91.20;;;;;;6131422;23;20036;-93
2021/07/22 04:35:30;;;;;;;5.18;4.40;;;18.90;91.10;;;;;;6131766;23;20005;-91
2021/07/22 04:37:55;;;;;;;6.50;4.63;;;18.90;91.10;;;;;;6130378;23;20032;-92
2021/07/22 04:40:21;;;;;;;8.07;4.75;;;18.90;91.10;;;;;;6130530;23;19998;-92
2021/07/22 04:42:47;;;;;;;4.43;4.03;;;18.90;91.10;;;;;;6130492;23;20001;-91
2021/07/22 04:45:13;;;;;;;6.05;4.55;;;19.00;91.00;;;;;;6131416;23;20006;-91
2021/07/22 04:47:39;;;;;;;5.47;4.38;;;19.00;90.80;;;;;;6130433;23;20060;-91
2021/07/22 04:50:06;;;;;;;5.53;4.57;;;19.00;90.90;;;;;;6151501;23;20002;-90
2021/07/22 04:52:31;;;;;;;5.13;4.60;;;19.10;90.80;;;;;;6157131;23;20013;-91
2021/07/22 04:54:57;;;;;;;4.80;4.32;;;19.10;90.70;;;;;;6156145;23;20008;-92
2021/07/22 04:57:23;;;;;;;4.88;4.30;;;19.20;90.60;;;;;;6156547;23;20073;-91
2021/07/22 04:59:48;;;;;;;5.07;4.00;;;19.30;90.40;;;;;;6149249;23;20016;-93
2021/07/22 05:02:19;;;;;;;5.15;4.65;;;19.40;90.30;;;;;;6160958;23;20005;-92
2021/07/22 05:04:45;;;;;;;4.40;4.00;;;19.40;90.20;;;;;;6134573;23;20014;-92
2021/07/22 05:07:11;;;;;;;5.03;4.53;;;19.30;90.20;;;;;;6129633;23;20378;-91
2021/07/22 05:09:37;;;;;;;5.30;4.80;;;19.30;90.30;;;;;;6129745;23;20005;-92
2021/07/22 05:12:04;;;;;;;7.90;4.68;;;19.40;90.30;;;;;;6127206;23;20006;-92
2021/07/22 05:14:30;;;;;;;4.85;4.43;;;19.40;90.20;;;;;;6127765;23;19995;-91
2021/07/22 05:16:55;;;;;;;6.32;4.80;;;19.40;90.20;;;;;;6126096;23;20010;-91
2021/07/22 05:19:21;;;;;;;8.05;4.85;;;19.50;90.00;;;;;;6126345;23;20012;-94
2021/07/22 05:21:47;;;;;;;5.72;4.50;;;19.50;89.70;;;;;;6127643;23;20029;-91
2021/07/22 05:24:13;;;;;;;5.32;4.82;;;19.60;89.50;;;;;;6125898;23;20014;-93
2021/07/22 05:26:40;;;;;;;6.03;4.63;;;19.60;89.20;;;;;;6125566;23;20014;-91
2021/07/22 05:29:06;;;;;;;7.63;4.97;;;19.60;89.20;;;;;;6125887;23;20036;-91
2021/07/22 05:31:31;;;;;;;5.53;4.90;;;19.60;89.60;;;;;;6125461;23;20033;-92
2021/07/22 05:33:57;;;;;;;5.78;5.05;;;19.60;89.30;;;;;;6126901;23;20002;-92
2021/07/22 05:36:23;;;;;;;6.25;4.85;;;19.70;89.30;;;;;;6125446;23;20020;-92
2021/07/22 05:38:49;;;;;;;6.20;5.60;;;19.70;88.90;;;;;;6126435;23;20083;-91
2021/07/22 05:41:14;;;;;;;6.15;4.88;;;19.70;88.80;;;;;;6126056;23;20002;-92
2021/07/22 05:43:40;;;;;;;5.30;4.80;;;19.70;88.10;;;;;;6126046;23;20075;-92
2021/07/22 05:46:06;;;;;;;5.32;4.82;;;19.70;88.50;;;;;;6127902;23;20041;-90
2021/07/22 05:48:31;;;;;;;5.65;4.78;;;19.70;88.30;;;;;;6128093;23;20307;-93
2021/07/22 05:51:01;;;;;;;5.22;4.72;;;19.80;88.10;;;;;;6128300;23;20081;-91
2021/07/22 05:53:27;;;;;;;6.10;5.07;;;19.90;87.30;;;;;;6125679;23;20009;-91
2021/07/22 05:55:57;;;;;;;6.10;5.50;;;19.90;86.80;;;;;;6127236;23;20085;-91
2021/07/22 05:58:23;;;;;;;5.90;5.03;;;19.90;86.30;;;;;;6125725;23;20006;-92
2021/07/22 06:00:48;;;;;;;7.03;5.15;;;20.00;86.00;;;;;;6125877;23;20009;-92
2021/07/22 06:03:14;;;;;;;7.40;5.43;;;20.00;85.50;;;;;;6126119;23;20092;-92
2021/07/22 06:05:40;;;;;;;6.65;5.38;;;20.10;85.40;;;;;;6125050;23;20021;-93
2021/07/22 06:08:08;;;;;;;4.68;4.28;;;20.10;85.60;;;;;;6125404;23;20017;-93
2021/07/22 06:10:37;;;;;;;5.35;4.85;;;20.10;85.80;;;;;;6128918;23;20009;-92
2021/07/22 06:13:03;;;;;;;6.10;5.10;;;20.20;85.70;;;;;;6127332;23;20002;-92
2021/07/22 06:15:28;;;;;;;7.10;5.03;;;20.20;85.90;;;;;;6126758;23;20101;-93
2021/07/22 06:17:54;;;;;;;6.95;4.70;;;20.30;86.10;;;;;;6128126;23;20006;-92
2021/07/22 06:20:20;;;;;;;5.45;4.95;;;20.30;85.70;;;;;;6127400;23;20013;-92
2021/07/22 06:22:46;;;;;;;7.82;5.00;;;20.40;85.60;;;;;;6127335;23;20097;-92
2021/07/22 06:25:13;;;;;;;5.30;4.80;;;20.50;85.80;;;;;;6127216;23;20017;-92
2021/07/22 06:27:40;;;;;;;5.90;5.40;;;20.60;85.40;;;;;;6127056;23;20077;-92
2021/07/22 06:30:06;;;;;;;5.80;5.05;;;20.70;85.20;;;;;;6127383;23;20014;-92
2021/07/22 06:32:32;;;;;;;5.50;5.00;;;20.80;85.00;;;;;;6129348;23;19998;-92
2021/07/22 06:34:58;;;;;;;5.88;4.80;;;20.80;84.60;;;;;;6127416;23;20013;-92
2021/07/22 06:37:41;;;;;;;5.75;5.00;;;20.90;84.70;;;;;;6128426;23;20307;-92
2021/07/22 06:40:07;;;;;;;5.93;4.88;;;21.00;84.30;;;;;;6130568;23;19998;-93
2021/07/22 06:42:33;;;;;;;6.53;5.13;;;21.00;83.90;;;;;;6147852;23;20002;-92
2021/07/22 06:44:58;;;;;;;5.88;5.10;;;21.10;83.80;;;;;;6148318;23;20009;-91
2021/07/22 06:47:24;;;;;;;8.13;4.93;;;21.10;83.20;;;;;;6147827;23;20078;-92
2021/07/22 06:49:51;;;;;;;5.63;4.82;;;21.20;83.10;;;;;;6146579;23;20411;-91
2021/07/22 06:52:17;;;;;;;5.60;4.95;;;21.20;82.60;;;;;;6134147;23;20033;-92
2021/07/22 06:54:42;;;;;;;5.10;4.50;;;21.30;82.50;;;;;;6128453;23;20033;-92
2021/07/22 06:57:08;;;;;;;6.50;4.88;;;21.40;82.10;;;;;;6131572;23;20089;-92
2021/07/22 06:59:34;;;;;;;4.80;4.35;;;21.50;82.30;;;;;;6133056;23;20006;-92
2021/07/22 07:01:59;;;;;;;5.50;4.30;;;21.60;81.60;;;;;;6132324;23;19998;-92
2021/07/22 07:04:28;;;;;;;4.78;4.38;;;21.60;81.20;;;;;;6128440;23;20445;-91
2021/07/22 07:06:54;;;;;;;7.47;4.70;;;21.70;81.30;;;;;;6129343;23;20014;-92
2021/07/22 07:09:19;;;;;;;4.85;4.28;;;21.80;80.80;;;;;;6131814;23;20411;-91
2021/07/22 07:11:45;;;;;;;7.68;5.18;;;21.90;80.30;;;;;;6129201;23;20010;-93
2021/07/22 07:14:11;;;;;;;5.00;4.40;;;21.90;79.40;;;;;;6134969;23;20002;-92
2021/07/22 07:16:39;;;;;;;4.22;3.83;;;21.90;79.40;;;;;;6133436;23;20076;-93
2021/07/22 07:19:07;;;;;;;5.55;4.05;;;21.90;79.90;;;;;;6136292;23;20002;-93
2021/07/22 07:21:38;;;;;;;5.30;4.10;;;22.10;79.90;;;;;;6128148;23;20002;-92
2021/07/22 07:24:05;;;;;;;4.82;4.32;;;22.20;78.90;;;;;;6129049;23;20100;-92
2021/07/22 07:26:31;;;;;;;5.65;3.90;;;22.30;78.10;;;;;;6126698;23;20014;-93
2021/07/22 07:28:57;;;;;;;4.43;4.03;;;22.40;78.10;;;;;;6127257;23;19998;-92
2021/07/22 07:31:23;;;;;;;5.00;3.95;;;22.40;77.40;;;;;;6127719;23;20037;-92
2021/07/22 07:33:50;;;;;;;3.75;3.45;;;22.50;75.90;;;;;;6128049;23;19998;-92
2021/07/22 07:36:16;;;;;;;4.40;4.00;;;22.50;74.80;;;;;;6127665;23;20057;-94
2021/07/22 07:38:45;;;;;;;4.53;4.03;;;22.60;75.60;;;;;;6129513;23;20002;-92
2021/07/22 07:41:11;;;;;;;4.20;3.80;;;22.70;75.30;;;;;;6128871;23;20088;-93
2021/07/22 07:44:06;;;;;;;6.03;3.55;;;22.80;73.10;;;;;;6135051;23;20002;-93
2021/07/22 07:46:33;;;;;;;4.47;3.53;;;22.80;72.70;;;;;;6118928;23;20085;-92
2021/07/22 07:48:59;;;;;;;4.65;3.67;;;22.90;73.40;;;;;;6128348;23;20010;-93
2021/07/22 07:51:48;;;;;;;3.45;3.15;;;23.00;72.20;;;;;;6131796;23;19998;-95
2021/07/22 07:54:21;;;;;;;2.88;2.67;;;23.00;72.40;;;;;;6108411;23;20006;-90
2021/07/22 07:56:47;;;;;;;4.32;3.17;;;23.10;68.70;;;;;;6130446;23;20013;-92
2021/07/22 07:59:12;;;;;;;4.20;3.15;;;23.20;68.30;;;;;;6131215;23;20009;-92
2021/07/22 08:01:41;;;;;;;3.45;2.95;;;23.20;67.10;;;;;;6131087;23;19998;-92
2021/07/22 08:04:07;;;;;;;4.57;2.60;;;23.20;67.70;;;;;;6129707;23;20010;-92
2021/07/22 08:06:33;;;;;;;2.70;2.50;;;23.30;67.50;;;;;;6131072;23;20006;-91
2021/07/22 08:08:59;;;;;;;4.05;3.22;;;23.40;68.10;;;;;;6127922;23;20025;-91
2021/07/22 08:11:25;;;;;;;4.10;2.85;;;23.40;68.40;;;;;;6128019;23;20305;-90
2021/07/22 08:13:50;;;;;;;3.03;2.78;;;23.50;68.50;;;;;;6127138;23;20006;-90
2021/07/22 08:16:17;;;;;;;3.88;2.83;;;23.60;67.20;;;;;;6127623;23;20018;-92
2021/07/22 08:18:45;;;;;;;3.08;2.75;;;23.70;65.20;;;;;;6127692;23;20006;-91
2021/07/22 08:21:12;;;;;;;4.22;2.80;;;23.70;65.10;;;;;;6127700;23;20018;-92
2021/07/22 08:23:38;;;;;;;2.97;2.72;;;23.80;63.70;;;;;;6129694;23;20002;-92
2021/07/22 08:26:05;;;;;;;2.80;2.60;;;23.80;64.10;;;;;;6130312;23;20082;-91
2021/07/22 08:28:32;;;;;;;2.65;2.45;;;23.80;63.80;;;;;;6136517;23;20009;-93
2021/07/22 08:30:57;;;;;;;3.03;2.70;;;23.90;63.90;;;;;;6132241;23;20430;-91
2021/07/22 08:33:25;;;;;;;3.30;2.65;;;23.90;64.10;;;;;;6136609;23;20016;-91
2021/07/22 08:35:51;;;;;;;4.00;2.90;;;23.90;63.20;;;;;;6146896;23;20482;-91
2021/07/22 08:38:16;;;;;;;2.60;2.28;;;23.90;63.80;;;;;;6147477;23;20034;-90
2021/07/22 08:40:42;;;;;;;2.97;2.70;;;24.00;63.70;;;;;;6149108;23;19998;-91
2021/07/22 08:43:08;;;;;;;2.42;2.22;;;24.00;63.10;;;;;;6149692;23;20010;-92
2021/07/22 08:45:34;;;;;;;7.70;3.08;;;24.00;62.40;;;;;;6135814;23;20453;-92
2021/07/22 08:48:00;;;;;;;2.88;2.42;;;24.00;62.40;;;;;;6130420;23;19998;-92
2021/07/22 08:50:27;;;;;;;2.63;2.42;;;23.90;62.70;;;;;;6130040;23;20017;-91
2021/07/22 08:52:52;;;;;;;3.42;2.60;;;23.90;62.60;;;;;;6128959;23;20009;-91
2021/07/22 08:55:19;;;;;;;2.53;2.30;;;23.90;62.40;;;;;;6128649;23;20010;-91
2021/07/22 08:57:45;;;;;;;4.80;2.40;;;24.00;62.40;;;;;;6126295;23;20006;-91
2021/07/22 09:00:12;;;;;;;2.70;2.30;;;24.10;62.20;;;;;;6128038;23;20005;-91
2021/07/22 09:02:38;;;;;;;2.85;2.65;;;24.20;61.10;;;;;;6130514;23;20021;-92
2021/07/22 09:05:07;;;;;;;3.85;2.70;;;24.30;60.50;;;;;;6127956;23;20030;-91
2021/07/22 09:07:33;;;;;;;6.80;2.90;;;24.30;59.70;;;;;;6125984;23;20006;-92
2021/07/22 09:10:07;;;;;;;3.20;2.30;;;24.20;59.90;;;;;;6127448;23;20001;-90
2021/07/22 09:12:51;;;;;;;2.72;2.50;;;24.30;59.60;;;;;;6126859;23;20005;-91
2021/07/22 09:15:17;;;;;;;3.63;2.25;;;24.40;59.30;;;;;;6129347;23;20045;-92
2021/07/22 09:17:43;;;;;;;2.53;2.33;;;24.50;59.00;;;;;;6126427;23;20005;-91
2021/07/22 09:20:24;;;;;;;3.38;2.90;;;24.50;59.00;;;;;;6126425;23;20006;-92
2021/07/22 09:22:50;;;;;;;3.83;2.60;;;24.50;57.60;;;;;;6127455;23;19994;-92
2021/07/22 09:25:15;;;;;;;2.78;2.58;;;24.50;57.50;;;;;;6125577;23;20199;-91
2021/07/22 09:27:43;;;;;;;3.90;2.85;;;24.50;57.80;;;;;;6125792;23;20090;-93
2021/07/22 09:30:27;;;;;;;3.60;2.80;;;24.50;57.10;;;;;;6126857;23;20006;-93
2021/07/22 09:32:53;;;;;;;2.90;2.60;;;24.50;57.20;;;;;;6128542;23;20074;-91
2021/07/22 09:35:20;;;;;;;2.53;2.33;;;24.60;57.80;;;;;;6126011;23;20014;-91
2021/07/22 09:37:52;;;;;;;2.60;2.40;;;24.50;57.70;;;;;;6126581;23;19999;-90
2021/07/22 09:40:26;;;;;;;4.13;2.53;;;24.50;57.40;;;;;;6127729;23;20034;-92
2021/07/22 09:42:54;;;;;;;3.63;2.42;;;24.60;57.40;;;;;;6130407;23;20045;-91
2021/07/22 09:45:30;;;;;;;2.38;2.17;;;24.60;57.60;;;;;;6134329;23;20010;-91
2021/07/22 09:48:04;;;;;;;3.53;3.05;;;24.60;57.20;;;;;;6128650;23;20453;-91
2021/07/22 09:50:44;;;;;;;2.83;2.40;;;24.70;57.10;;;;;;6128045;23;20002;-93
2021/07/22 09:53:11;;;;;;;2.53;2.30;;;24.70;56.30;;;;;;6127553;23;20002;-91
2021/07/22 09:55:42;;;;;;;2.83;2.55;;;24.70;57.00;;;;;;6128924;23;20009;-93
2021/07/22 09:58:16;;;;;;;4.32;2.45;;;24.70;56.00;;;;;;6129885;23;20069;-93
2021/07/22 10:00:48;;;;;;;3.75;2.60;;;24.70;55.80;;;;;;6128154;23;20002;-92
2021/07/22 10:03:19;;;;;;;3.50;2.53;;;24.70;55.60;;;;;;6128768;23;20481;-92
2021/07/22 10:06:01;;;;;;;2.30;2.10;;;24.70;56.40;;;;;;6127188;23;20077;-91
2021/07/22 10:08:28;;;;;;;7.03;2.60;;;24.70;55.40;;;;;;6127575;23;20002;-92
2021/07/22 10:10:58;;;;;;;2.50;2.30;;;24.70;55.60;;;;;;6127284;23;20006;-92
2021/07/22 10:13:32;;;;;;;4.35;2.15;;;24.80;55.60;;;;;;6127581;23;20423;-90
2021/07/22 10:16:00;;;;;;;3.55;2.10;;;24.90;55.50;;;;;;6127987;23;20561;-93
2021/07/22 10:18:31;;;;;;;3.33;2.42;;;24.90;54.90;;;;;;6127881;23;19998;-91
2021/07/22 10:20:59;;;;;;;2.60;2.40;;;24.90;55.80;;;;;;6131182;23;20025;-91
2021/07/22 10:23:25;;;;;;;3.15;2.67;;;25.10;54.80;;;;;;6129587;23;20016;-92
2021/07/22 10:25:54;;;;;;;3.47;2.85;;;25.10;54.90;;;;;;6137868;23;20029;-91
2021/07/22 10:28:20;;;;;;;2.33;2.13;;;25.20;55.00;;;;;;6139450;23;19990;-91
2021/07/22 10:30:48;;;;;;;2.22;2.03;;;25.30;55.00;;;;;;6145645;23;20009;-91
2021/07/22 10:33:19;;;;;;;3.65;2.25;;;25.30;54.70;;;;;;6136764;23;20120;-92
2021/07/22 10:35:45;;;;;;;2.72;2.50;;;25.20;53.30;;;;;;6146185;23;20014;-92
2021/07/22 10:38:20;;;;;;;3.30;2.40;;;25.20;53.50;;;;;;6149574;23;20097;-91
2021/07/22 10:41:01;;;;;;;3.58;2.50;;;25.40;53.80;;;;;;6133928;23;20009;-92
2021/07/22 10:43:41;;;;;;;3.00;2.70;;;25.50;53.00;;;;;;6130923;23;20033;-92
2021/07/22 10:46:11;;;;;;;2.45;2.25;;;25.60;53.60;;;;;;6130139;23;20133;-91
2021/07/22 10:48:41;;;;;;;2.83;2.30;;;25.50;53.70;;;;;;6129846;23;20002;-93
2021/07/22 10:51:09;;;;;;;3.75;2.30;;;25.60;54.40;;;;;;6131590;23;20009;-92
2021/07/22 10:53:43;;;;;;;2.30;2.10;;;25.80;54.00;;;;;;6128254;23;20005;-91
2021/07/22 10:56:13;;;;;;;2.92;2.63;;;25.70;53.60;;;;;;6126655;23;20064;-92
2021/07/22 10:58:39;;;;;;;3.25;2.67;;;25.70;53.00;;;;;;6131986;23;20057;-92
2021/07/22 11:01:06;;;;;;;2.72;2.50;;;25.60;53.30;;;;;;6128256;23;20461;-92
2021/07/22 11:03:35;;;;;;;2.95;2.30;;;25.50;52.30;;;;;;6127401;23;20002;-92
2021/07/22 11:06:09;;;;;;;2.65;2.17;;;25.50;52.00;;;;;;6128722;23;20042;-92
2021/07/22 11:08:42;;;;;;;2.60;2.40;;;25.60;52.70;;;;;;6132351;23;20005;-92
2021/07/22 11:11:18;;;;;;;2.83;2.50;;;25.70;51.80;;;;;;6128410;23;20006;-93
2021/07/22 11:13:54;;;;;;;3.83;2.88;;;25.80;51.90;;;;;;6125640;23;20398;-94
2021/07/22 11:16:31;;;;;;;3.70;2.50;;;25.80;51.10;;;;;;6128847;23;20009;-92
2021/07/22 11:19:13;;;;;;;8.10;2.72;;;25.80;50.90;;;;;;6131929;23;20061;-92
2021/07/22 11:21:39;;;;;;;2.20;2.00;;;25.80;49.70;;;;;;6131865;23;19998;-91
2021/07/22 11:24:18;;;;;;;4.78;2.40;;;25.80;50.50;;;;;;6134893;23;20085;-93
2021/07/22 11:26:49;;;;;;;2.33;2.13;;;25.70;50.50;;;;;;6129371;23;20010;-93
2021/07/22 11:29:17;;;;;;;2.33;2.13;;;25.70;51.40;;;;;;6129579;23;20081;-93
2021/07/22 11:31:54;;;;;;;2.33;2.13;;;25.70;51.50;;;;;;6127679;23;20065;-90
2021/07/22 11:34:31;;;;;;;4.43;2.67;;;25.80;51.40;;;;;;6133032;23;20090;-91
2021/07/22 11:36:58;;;;;;;6.32;2.58;;;25.80;51.00;;;;;;6128993;23;20014;-94
2021/07/22 11:39:37;;;;;;;2.42;2.22;;;25.80;50.20;;;;;;6131686;23;20081;-91
2021/07/22 11:42:13;;;;;;;3.03;2.50;;;25.80;50.60;;;;;;6128411;23;19998;-92
2021/07/22 11:44:40;;;;;;;2.35;2.15;;;25.80;51.30;;;;;;6130962;23;20006;-91
2021/07/22 11:47:33;;;;;;;2.88;2.50;;;25.80;50.90;;;;;;6129727;23;20017;-91
2021/07/22 11:50:05;;;;;;;3.00;2.22;;;25.80;49.00;;;;;;6132752;23;20061;-92
2021/07/22 11:52:30;;;;;;;2.55;2.00;;;25.80;49.20;;;;;;6133144;23;20006;-90
2021/07/22 11:55:09;;;;;;;2.58;2.33;;;25.80;49.60;;;;;;6132691;23;20422;-92
2021/07/22 11:57:39;;;;;;;2.67;2.47;;;25.80;49.50;;;;;;6130345;23;20093;-92
2021/07/22 12:00:14;;;;;;;4.80;2.30;;;25.80;49.30;;;;;;6133011;23;19998;-93
2021/07/22 12:03:03;;;;;;;2.58;2.38;;;25.70;50.90;;;;;;6130305;23;20438;-93
2021/07/22 12:05:33;;;;;;;3.10;2.80;;;25.70;50.80;;;;;;6152157;23;20017;-92
2021/07/22 12:08:16;;;;;;;2.15;1.95;;;25.80;51.60;;;;;;6133978;23;20008;-91
2021/07/22 12:10:42;;;;;;;2.88;2.60;;;25.90;51.30;;;;;;6130763;23;20041;-93
2021/07/22 12:13:11;;;;;;;2.90;2.35;;;25.90;51.10;;;;;;6131860;23;20033;-92
2021/07/22 12:15:39;;;;;;;4.22;2.53;;;25.80;50.20;;;;;;6158197;23;20010;-93
2021/07/22 12:18:05;;;;;;;3.75;2.10;;;25.80;49.90;;;;;;6138474;23;19998;-93
2021/07/22 12:20:33;;;;;;;3.55;2.30;;;25.90;50.20;;;;;;6137643;23;20001;-92
2021/07/22 12:23:19;;;;;;;5.35;2.20;;;26.10;50.00;;;;;;6151210;23;20057;-93
2021/07/22 12:25:58;;;;;;;3.92;2.30;;;26.20;49.50;;;;;;6152453;23;20065;-92
2021/07/22 12:28:24;;;;;;;3.03;2.63;;;26.40;49.40;;;;;;6148629;23;20009;-91
2021/07/22 12:30:53;;;;;;;4.15;2.33;;;26.70;49.00;;;;;;6178699;23;20001;-92
2021/07/22 12:33:25;;;;;;;2.70;2.50;;;27.00;48.30;;;;;;6177891;23;20056;-93
2021/07/22 12:35:51;;;;;;;2.85;2.50;;;27.10;47.20;;;;;;6152639;23;20017;-92
2021/07/22 12:38:20;;;;;;;3.10;2.25;;;27.40;46.90;;;;;;6152435;23;20032;-92
2021/07/22 12:40:46;;;;;;;2.67;2.42;;;27.50;47.40;;;;;;6148946;23;20438;-92
2021/07/22 12:43:16;;;;;;;3.45;2.70;;;27.70;46.90;;;;;;6144797;23;20084;-91
2021/07/22 12:45:44;;;;;;;3.10;2.55;;;27.90;46.50;;;;;;6145320;23;20035;-90
2021/07/22 12:48:12;;;;;;;3.08;2.33;;;28.00;47.00;;;;;;6161739;23;20067;-91
2021/07/22 12:50:47;;;;;;;2.67;2.42;;;28.30;46.20;;;;;;6158823;23;20008;-92
2021/07/22 12:53:20;;;;;;;2.83;2.28;;;28.60;46.80;;;;;;6130209;23;20457;-94